Time;durP1;ratioP1;P1;durP2;ratioP2;P2;SDS_P1;SDS_P2;PMS_P1;PMS_P2;Temp;Humidity;BMP_temperature;BMP_pressure;BME280_temperature;BME280_humidity;BME280_pressure;Samples;Min_cycle;Max_cycle;Signal;HPM_P1;HPM_P2
2023/07/11 00:01:24;;;;;;;5.10;4.40;;;;;;;;;;5062857;28;20074;-60
2023/07/11 00:03:49;;;;;;;5.43;4.67;;;;;;;;;;5052358;28;20116;-60
2023/07/11 00:06:16;;;;;;;5.60;4.30;;;;;;;;;;5049720;28;20695;-61
2023/07/11 00:08:41;;;;;;;5.10;4.60;;;;;;;;;;5035459;28;20083;-61
2023/07/11 00:11:09;;;;;;;5.80;4.57;;;;;;;;;;5063214;28;20475;-61
2023/07/11 00:13:34;;;;;;;5.93;5.13;;;;;;;;;;5046030;28;20286;-61
2023/07/11 00:16:04;;;;;;;5.30;4.40;;;;;;;;;;5045766;28;20468;-61
2023/07/11 00:18:29;;;;;;;7.20;5.30;;;;;;;;;;5059139;28;20040;-61
2023/07/11 00:20:54;;;;;;;5.93;4.80;;;;;;;;;;5043371;28;20135;-61
2023/07/11 00:23:20;;;;;;;6.25;5.00;;;;;;;;;;5046591;28;20487;-61
2023/07/11 00:25:45;;;;;;;7.20;5.03;;;;;;;;;;5046641;28;20079;-61
2023/07/11 00:28:10;;;;;;;6.70;4.85;;;;;;;;;;5052530;28;20050;-60
2023/07/11 00:30:36;;;;;;;7.57;5.13;;;;;;;;;;5049533;28;20398;-61
2023/07/11 00:33:01;;;;;;;6.80;4.70;;;;;;;;;;5062050;28;20421;-61
2023/07/11 00:35:26;;;;;;;7.73;4.93;;;;;;;;;;5061998;28;20131;-61
2023/07/11 00:37:51;;;;;;;6.77;5.20;;;;;;;;;;5063643;28;20660;-61
2023/07/11 00:40:17;;;;;;;6.28;5.03;;;;;;;;;;5051396;28;20425;-61
2023/07/11 00:42:42;;;;;;;6.37;5.10;;;;;;;;;;5043635;28;20047;-61
2023/07/11 00:45:30;;;;;;;6.72;5.07;;;;;;;;;;5057758;28;20678;-61
2023/07/11 00:47:56;;;;;;;7.22;5.50;;;;;;;;;;5047626;28;20068;-61
2023/07/11 00:50:21;;;;;;;7.83;5.40;;;;;;;;;;5024719;28;20033;-61
2023/07/11 00:52:46;;;;;;;7.03;5.20;;;;;;;;;;5050383;28;20044;-61
2023/07/11 00:55:11;;;;;;;6.50;4.90;;;;;;;;;;5047882;28;20286;-61
2023/07/11 00:57:37;;;;;;;7.75;5.10;;;;;;;;;;5056251;28;20480;-61
2023/07/11 01:00:04;;;;;;;6.68;4.75;;;;;;;;;;5028294;28;20025;-61
2023/07/11 01:02:31;;;;;;;7.85;5.28;;;;;;;;;;5044616;28;20532;-62
2023/07/11 01:04:56;;;;;;;7.35;5.25;;;;;;;;;;5053391;28;20081;-61
2023/07/11 01:07:25;;;;;;;7.87;5.40;;;;;;;;;;5034607;28;20120;-61
2023/07/11 01:09:50;;;;;;;6.88;5.20;;;;;;;;;;5066034;28;20289;-61
2023/07/11 01:12:15;;;;;;;7.73;4.97;;;;;;;;;;5055620;28;20037;-61
2023/07/11 01:14:42;;;;;;;8.43;5.50;;;;;;;;;;5057022;28;20275;-61
2023/07/11 01:17:22;;;;;;;7.65;5.55;;;;;;;;;;5048834;28;20052;-61
2023/07/11 01:19:48;;;;;;;8.38;5.63;;;;;;;;;;5064747;28;20047;-61
2023/07/11 01:22:13;;;;;;;6.95;5.68;;;;;;;;;;5049374;28;20044;-61
2023/07/11 01:24:38;;;;;;;6.73;5.60;;;;;;;;;;5055443;28;20127;-61
2023/07/11 01:27:04;;;;;;;7.77;5.90;;;;;;;;;;5066914;28;20282;-60
2023/07/11 01:29:29;;;;;;;9.07;5.43;;;;;;;;;;5066373;28;20282;-61
2023/07/11 01:31:54;;;;;;;9.47;5.60;;;;;;;;;;5047633;28;20032;-61
2023/07/11 01:34:19;;;;;;;7.80;5.80;;;;;;;;;;5064638;28;20340;-61
2023/07/11 01:36:45;;;;;;;7.88;5.88;;;;;;;;;;5063972;28;20122;-61
2023/07/11 01:39:10;;;;;;;8.90;6.37;;;;;;;;;;5048149;28;20053;-60
2023/07/11 01:41:35;;;;;;;8.30;6.20;;;;;;;;;;5046155;28;20400;-60
2023/07/11 01:44:01;;;;;;;9.88;6.13;;;;;;;;;;5040052;28;20693;-61
2023/07/11 01:46:26;;;;;;;7.95;6.15;;;;;;;;;;5065529;28;20109;-61
2023/07/11 01:48:51;;;;;;;9.82;6.22;;;;;;;;;;5065844;28;20062;-61
2023/07/11 01:51:16;;;;;;;7.57;6.27;;;;;;;;;;5066129;28;20543;-61
2023/07/11 01:53:41;;;;;;;9.77;6.23;;;;;;;;;;5054944;28;20299;-61
2023/07/11 01:56:07;;;;;;;10.00;5.93;;;;;;;;;;5065670;28;20286;-63
2023/07/11 01:58:32;;;;;;;8.60;5.90;;;;;;;;;;5064466;28;20044;-61
2023/07/11 02:00:57;;;;;;;7.13;5.80;;;;;;;;;;5048911;28;20044;-61
2023/07/11 02:03:23;;;;;;;10.15;6.35;;;;;;;;;;5041270;28;20075;-61
2023/07/11 02:05:48;;;;;;;7.80;6.15;;;;;;;;;;5049946;28;20025;-61
2023/07/11 02:08:13;;;;;;;10.13;6.63;;;;;;;;;;5046872;28;20039;-61
2023/07/11 02:10:39;;;;;;;7.57;6.07;;;;;;;;;;5063765;28;20382;-61
2023/07/11 02:13:04;;;;;;;9.20;6.10;;;;;;;;;;5047299;28;20129;-61
2023/07/11 02:15:29;;;;;;;10.43;6.23;;;;;;;;;;5036602;28;20791;-61
2023/07/11 02:17:54;;;;;;;8.63;6.17;;;;;;;;;;5045408;28;20363;-61
2023/07/11 02:20:19;;;;;;;7.40;5.93;;;;;;;;;;5045443;28;20280;-62
2023/07/11 02:22:45;;;;;;;13.40;6.17;;;;;;;;;;5027991;28;20751;-59
2023/07/11 02:25:10;;;;;;;8.80;6.10;;;;;;;;;;5046397;28;20738;-59
2023/07/11 02:27:35;;;;;;;8.00;6.40;;;;;;;;;;5063955;28;20270;-60
2023/07/11 02:30:00;;;;;;;10.33;6.07;;;;;;;;;;5062513;28;20282;-59
2023/07/11 02:32:26;;;;;;;8.70;6.50;;;;;;;;;;5060554;28;20302;-60
2023/07/11 02:34:51;;;;;;;7.40;6.30;;;;;;;;;;5044560;28;20382;-60
2023/07/11 02:37:16;;;;;;;7.72;5.95;;;;;;;;;;5065154;28;20142;-60
2023/07/11 02:39:41;;;;;;;8.47;6.13;;;;;;;;;;5065040;28;20032;-60
2023/07/11 02:42:07;;;;;;;6.77;5.50;;;;;;;;;;5047038;28;20402;-59
2023/07/11 02:44:32;;;;;;;7.15;5.60;;;;;;;;;;5044325;28;20295;-60
2023/07/11 02:46:57;;;;;;;8.37;6.00;;;;;;;;;;5056394;28;20055;-60
2023/07/11 02:49:23;;;;;;;9.20;6.37;;;;;;;;;;5057947;28;21065;-60
2023/07/11 02:51:48;;;;;;;8.60;6.17;;;;;;;;;;5051317;28;20295;-59
2023/07/11 02:54:14;;;;;;;8.97;6.30;;;;;;;;;;5064816;28;20114;-60
2023/07/11 02:56:39;;;;;;;9.00;6.00;;;;;;;;;;5047130;28;20302;-60
2023/07/11 02:59:04;;;;;;;8.07;5.90;;;;;;;;;;5046473;28;20114;-59
2023/07/11 03:01:31;;;;;;;8.80;6.57;;;;;;;;;;5063484;28;20310;-60
2023/07/11 03:03:56;;;;;;;8.00;5.78;;;;;;;;;;5040876;28;20033;-60
2023/07/11 03:06:21;;;;;;;8.43;6.10;;;;;;;;;;5060976;28;20033;-59
2023/07/11 03:08:46;;;;;;;7.47;6.20;;;;;;;;;;5063359;28;20833;-60
2023/07/11 03:11:12;;;;;;;8.33;5.70;;;;;;;;;;5044290;28;20036;-60
2023/07/11 03:13:37;;;;;;;8.50;6.67;;;;;;;;;;5055026;28;21072;-60
2023/07/11 03:16:03;;;;;;;7.07;5.70;;;;;;;;;;5053568;28;20314;-61
2023/07/11 03:18:28;;;;;;;9.38;6.30;;;;;;;;;;5045050;28;20344;-61
2023/07/11 03:20:56;;;;;;;9.52;6.38;;;;;;;;;;5046166;28;20131;-60
2023/07/11 03:23:21;;;;;;;8.73;5.95;;;;;;;;;;5045048;28;20404;-61
2023/07/11 03:25:46;;;;;;;7.35;5.95;;;;;;;;;;5055496;28;20046;-60
2023/07/11 03:28:12;;;;;;;9.03;6.43;;;;;;;;;;5045438;28;20035;-60
2023/07/11 03:30:37;;;;;;;7.57;5.75;;;;;;;;;;5036839;28;20124;-60
2023/07/11 03:33:02;;;;;;;8.07;5.88;;;;;;;;;;5062017;28;20690;-60
2023/07/11 03:35:28;;;;;;;8.10;5.85;;;;;;;;;;5059549;28;20033;-61
2023/07/11 03:37:53;;;;;;;7.65;6.13;;;;;;;;;;5056340;28;20075;-60
2023/07/11 03:40:18;;;;;;;8.40;6.20;;;;;;;;;;5034620;28;20040;-60
2023/07/11 03:42:43;;;;;;;9.13;6.30;;;;;;;;;;5053714;28;20325;-60
2023/07/11 03:45:09;;;;;;;7.93;6.00;;;;;;;;;;5055629;28;20689;-60
2023/07/11 03:47:34;;;;;;;6.45;5.57;;;;;;;;;;5063664;28;20290;-61
2023/07/11 03:49:59;;;;;;;8.73;6.27;;;;;;;;;;5056647;28;20032;-61
2023/07/11 03:52:25;;;;;;;7.67;6.23;;;;;;;;;;5050835;28;20298;-60
2023/07/11 03:54:50;;;;;;;7.13;6.32;;;;;;;;;;5051567;28;20028;-60
2023/07/11 03:57:15;;;;;;;8.90;6.80;;;;;;;;;;5052890;28;20143;-60
2023/07/11 03:59:41;;;;;;;9.52;6.78;;;;;;;;;;5039717;28;20044;-60
2023/07/11 04:02:06;;;;;;;8.10;6.23;;;;;;;;;;5052442;28;20102;-60
2023/07/11 04:04:31;;;;;;;8.80;6.37;;;;;;;;;;5049979;28;20299;-60
2023/07/11 04:06:57;;;;;;;9.35;6.45;;;;;;;;;;5035382;28;20037;-59
2023/07/11 04:09:22;;;;;;;9.30;6.57;;;;;;;;;;5033859;28;20068;-60
2023/07/11 04:11:47;;;;;;;9.45;6.70;;;;;;;;;;5051508;28;20037;-61
2023/07/11 04:14:12;;;;;;;9.63;6.77;;;;;;;;;;5051616;28;20032;-61
2023/07/11 04:16:38;;;;;;;7.40;5.93;;;;;;;;;;5051484;28;20295;-60
2023/07/11 04:19:03;;;;;;;8.55;6.28;;;;;;;;;;5053786;28;20040;-60
2023/07/11 04:21:28;;;;;;;8.23;6.20;;;;;;;;;;5050352;28;20705;-60
2023/07/11 04:23:53;;;;;;;8.38;6.43;;;;;;;;;;5051960;28;20282;-61
2023/07/11 04:26:19;;;;;;;7.90;6.27;;;;;;;;;;5049745;28;20502;-60
2023/07/11 04:28:44;;;;;;;7.50;6.40;;;;;;;;;;5039393;28;20595;-62
2023/07/11 04:31:09;;;;;;;8.57;6.57;;;;;;;;;;5050951;28;20299;-62
2023/07/11 04:33:34;;;;;;;10.83;6.60;;;;;;;;;;5051582;28;20305;-61
2023/07/11 04:36:10;;;;;;;9.75;5.93;;;;;;;;;;5046874;28;20840;-62
2023/07/11 04:38:35;;;;;;;8.40;6.75;;;;;;;;;;5034062;28;20193;-61
2023/07/11 04:41:02;;;;;;;9.07;6.70;;;;;;;;;;5050602;28;20124;-61
2023/07/11 04:43:27;;;;;;;9.60;6.85;;;;;;;;;;5030302;28;20328;-62
2023/07/11 04:45:54;;;;;;;9.20;6.13;;;;;;;;;;5052167;28;20043;-62
2023/07/11 04:48:20;;;;;;;15.10;10.98;;;;;;;;;;5053767;28;21711;-61
2023/07/11 04:50:45;;;;;;;12.37;7.83;;;;;;;;;;5051740;28;20155;-61
2023/07/11 04:53:11;;;;;;;15.35;10.57;;;;;;;;;;5051137;28;20306;-61
2023/07/11 04:55:37;;;;;;;11.63;7.88;;;;;;;;;;5052289;28;20059;-62
2023/07/11 04:58:03;;;;;;;11.20;8.05;;;;;;;;;;5030521;28;20057;-61
2023/07/11 05:00:28;;;;;;;18.00;13.03;;;;;;;;;;5049433;28;20135;-62
2023/07/11 05:02:53;;;;;;;14.87;11.30;;;;;;;;;;5051001;28;20294;-63
2023/07/11 05:05:18;;;;;;;14.80;10.17;;;;;;;;;;5027800;28;20295;-62
2023/07/11 05:07:44;;;;;;;11.47;9.30;;;;;;;;;;5050969;28;20045;-62
2023/07/11 05:10:09;;;;;;;11.23;8.23;;;;;;;;;;5030363;28;20395;-61
2023/07/11 05:12:35;;;;;;;11.53;7.90;;;;;;;;;;5027991;28;20041;-61
2023/07/11 05:15:00;;;;;;;16.42;8.02;;;;;;;;;;5050657;28;20383;-61
2023/07/11 05:17:25;;;;;;;11.67;7.07;;;;;;;;;;5032910;28;20107;-60
2023/07/11 05:19:50;;;;;;;11.97;7.43;;;;;;;;;;5051144;28;20290;-61
2023/07/11 05:22:16;;;;;;;11.98;7.00;;;;;;;;;;5039197;28;20914;-61
2023/07/11 05:24:41;;;;;;;9.98;7.28;;;;;;;;;;5029888;28;20596;-61
2023/07/11 05:30:12;;;;;;;10.43;7.07;;;;;;;;;;5026637;28;21010;-61
2023/07/11 05:32:37;;;;;;;10.18;7.22;;;;;;;;;;5054878;22;20090;-62
2023/07/11 05:35:02;;;;;;;9.53;6.80;;;;;;;;;;5040528;22;20049;-59
2023/07/11 05:37:28;;;;;;;9.95;7.05;;;;;;;;;;5041366;28;20298;-60
2023/07/11 05:39:53;;;;;;;9.68;6.60;;;;;;;;;;5029080;28;20060;-59
2023/07/11 05:42:18;;;;;;;8.63;6.37;;;;;;;;;;5057907;28;20110;-59
2023/07/11 05:44:44;;;;;;;11.70;7.00;;;;;;;;;;5060692;28;20287;-60
2023/07/11 05:47:09;;;;;;;10.98;6.43;;;;;;;;;;5061989;28;20463;-60
2023/07/11 05:49:34;;;;;;;9.68;6.50;;;;;;;;;;5062380;22;20256;-60
2023/07/11 05:51:59;;;;;;;10.57;6.50;;;;;;;;;;5025381;28;20408;-58
2023/07/11 05:54:25;;;;;;;10.63;6.77;;;;;;;;;;5047430;28;20137;-61
2023/07/11 05:56:50;;;;;;;10.67;6.53;;;;;;;;;;5058913;28;20296;-61
2023/07/11 05:59:15;;;;;;;9.60;7.20;;;;;;;;;;5028157;28;20037;-61
2023/07/11 06:01:41;;;;;;;10.88;7.15;;;;;;;;;;5034646;28;20052;-61
2023/07/11 06:06:41;;;;;;;8.75;6.45;;;;;;;;;;5021716;28;20463;-62
2023/07/11 06:09:07;;;;;;;11.07;6.78;;;;;;;;;;5036613;28;20278;-60
2023/07/11 06:11:33;;;;;;;8.30;6.68;;;;;;;;;;5036315;28;20214;-60
2023/07/11 06:13:58;;;;;;;10.77;7.23;;;;;;;;;;5040102;28;20515;-61
2023/07/11 06:16:23;;;;;;;13.80;7.40;;;;;;;;;;5040674;28;20276;-62
2023/07/11 06:18:49;;;;;;;10.10;7.18;;;;;;;;;;5041383;28;20086;-61
2023/07/11 06:21:15;;;;;;;11.82;7.15;;;;;;;;;;5022657;28;20036;-61
2023/07/11 06:23:40;;;;;;;9.82;6.43;;;;;;;;;;5041161;28;20025;-63
2023/07/11 06:26:05;;;;;;;14.95;7.22;;;;;;;;;;5031952;28;20108;-61
2023/07/11 06:28:31;;;;;;;9.52;6.55;;;;;;;;;;5031768;28;20032;-61
2023/07/11 06:30:57;;;;;;;11.75;7.07;;;;;;;;;;5036339;28;20052;-61
2023/07/11 06:33:23;;;;;;;11.73;7.22;;;;;;;;;;5040547;28;20069;-59
2023/07/11 06:35:51;;;;;;;12.18;7.35;;;;;;;;;;5039503;28;20024;-61
2023/07/11 06:38:17;;;;;;;8.50;6.55;;;;;;;;;;5039868;28;20353;-64
2023/07/11 06:40:49;;;;;;;10.32;6.68;;;;;;;;;;5040004;28;20129;-60
2023/07/11 06:43:14;;;;;;;10.13;7.22;;;;;;;;;;5038052;28;20041;-60
2023/07/11 06:45:40;;;;;;;9.88;7.20;;;;;;;;;;5042291;28;20568;-62
2023/07/11 06:48:05;;;;;;;10.65;7.68;;;;;;;;;;5037254;28;20663;-63
2023/07/11 06:50:30;;;;;;;10.43;7.43;;;;;;;;;;5035836;28;20094;-60
2023/07/11 06:52:55;;;;;;;13.27;8.03;;;;;;;;;;5038284;28;20104;-62
2023/07/11 06:55:21;;;;;;;10.85;6.70;;;;;;;;;;5022022;28;20825;-60
2023/07/11 06:57:46;;;;;;;10.40;7.03;;;;;;;;;;5035356;28;20047;-61
2023/07/11 07:00:12;;;;;;;8.40;7.10;;;;;;;;;;5031626;28;20045;-61
2023/07/11 07:02:37;;;;;;;10.48;7.38;;;;;;;;;;5033129;28;21163;-61
2023/07/11 07:05:03;;;;;;;12.90;7.20;;;;;;;;;;5036251;28;20029;-61
2023/07/11 07:07:28;;;;;;;10.30;7.78;;;;;;;;;;5039743;28;20570;-61
2023/07/11 07:09:53;;;;;;;9.63;7.43;;;;;;;;;;5014727;28;20061;-60
2023/07/11 07:12:18;;;;;;;13.40;7.75;;;;;;;;;;5017069;28;20114;-60
2023/07/11 07:14:44;;;;;;;9.40;7.30;;;;;;;;;;5036836;28;20064;-62
2023/07/11 07:17:09;;;;;;;11.50;7.00;;;;;;;;;;5035173;28;20060;-60
2023/07/11 07:19:34;;;;;;;10.63;6.95;;;;;;;;;;5018613;28;20279;-60
2023/07/11 07:22:00;;;;;;;13.77;7.53;;;;;;;;;;5035787;28;20588;-60
2023/07/11 07:24:25;;;;;;;10.23;7.43;;;;;;;;;;5036761;28;20458;-61
2023/07/11 07:26:50;;;;;;;12.97;7.43;;;;;;;;;;5034409;28;20127;-61
2023/07/11 07:29:16;;;;;;;11.65;7.78;;;;;;;;;;5036291;28;20284;-60
2023/07/11 07:31:41;;;;;;;12.18;8.18;;;;;;;;;;5037238;28;20124;-60
2023/07/11 07:34:07;;;;;;;11.00;7.07;;;;;;;;;;5036071;28;20122;-61
2023/07/11 07:36:32;;;;;;;11.80;7.68;;;;;;;;;;5037168;28;20120;-60
2023/07/11 07:38:57;;;;;;;12.47;7.60;;;;;;;;;;5036738;28;20041;-63
2023/07/11 07:41:24;;;;;;;14.45;7.50;;;;;;;;;;5035150;28;20056;-63
2023/07/11 07:43:49;;;;;;;9.98;6.97;;;;;;;;;;5020453;28;21793;-60
2023/07/11 07:46:15;;;;;;;8.57;6.20;;;;;;;;;;5039285;28;20090;-60
2023/07/11 07:48:40;;;;;;;15.90;7.15;;;;;;;;;;5041426;28;20283;-61
2023/07/11 07:51:07;;;;;;;8.95;6.68;;;;;;;;;;5038383;28;20470;-60
2023/07/11 07:53:32;;;;;;;11.57;6.90;;;;;;;;;;5038315;28;20037;-61
2023/07/11 07:56:07;;;;;;;9.93;6.53;;;;;;;;;;5033444;28;20044;-61
2023/07/11 07:58:33;;;;;;;8.93;5.97;;;;;;;;;;5035830;28;21122;-60
2023/07/11 08:00:58;;;;;;;10.07;6.80;;;;;;;;;;5019669;28;20044;-62
2023/07/11 08:03:23;;;;;;;9.80;5.90;;;;;;;;;;5035981;28;20832;-61
2023/07/11 08:05:48;;;;;;;9.80;6.50;;;;;;;;;;5040194;28;20330;-60
2023/07/11 08:08:14;;;;;;;8.87;6.50;;;;;;;;;;5032485;28;20283;-62
2023/07/11 08:10:39;;;;;;;8.13;6.37;;;;;;;;;;5037886;28;20242;-60
2023/07/11 08:13:04;;;;;;;8.20;6.28;;;;;;;;;;5043902;28;20131;-61
2023/07/11 08:15:30;;;;;;;9.30;6.10;;;;;;;;;;5035176;28;20132;-61
2023/07/11 08:17:55;;;;;;;7.70;6.23;;;;;;;;;;5043936;28;20118;-60
2023/07/11 08:20:20;;;;;;;11.65;6.78;;;;;;;;;;5025882;28;20076;-62
2023/07/11 08:22:45;;;;;;;11.80;6.53;;;;;;;;;;5042734;28;20056;-61
2023/07/11 08:25:11;;;;;;;8.77;5.83;;;;;;;;;;5035134;28;20122;-61
2023/07/11 08:27:37;;;;;;;9.05;5.97;;;;;;;;;;5040101;28;20369;-61
2023/07/11 08:30:02;;;;;;;8.38;5.80;;;;;;;;;;5034033;28;20055;-63
2023/07/11 09:12:06;;;;;;;7.55;4.72;;;;;;;;;;5024572;28;20044;-61
2023/07/11 09:14:34;;;;;;;6.70;4.15;;;;;;;;;;5031078;28;20037;-61
2023/07/11 09:17:29;;;;;;;6.15;4.82;;;;;;;;;;5014641;28;20124;-60
2023/07/11 09:53:14;;;;;;;5.80;4.20;;;;;;;;;;5048265;23;20105;-61
2023/07/11 09:55:39;;;;;;;4.43;4.03;;;;;;;;;;5032543;23;20432;-59
2023/07/11 09:58:04;;;;;;;6.05;4.68;;;;;;;;;;5037203;28;20071;-60
2023/07/11 10:00:29;;;;;;;5.83;4.60;;;;;;;;;;5037747;28;20035;-62
2023/07/11 10:02:57;;;;;;;6.75;4.35;;;;;;;;;;4999945;28;20291;-60
2023/07/11 10:05:22;;;;;;;7.03;4.40;;;;;;;;;;5018348;28;20405;-59
2023/07/11 10:08:04;;;;;;;7.25;4.50;;;;;;;;;;5020164;28;20048;-61
2023/07/11 10:10:29;;;;;;;6.40;4.70;;;;;;;;;;5020729;28;20068;-58
2023/07/11 10:12:55;;;;;;;5.68;4.38;;;;;;;;;;5035207;28;20071;-60
2023/07/11 10:15:20;;;;;;;5.38;4.70;;;;;;;;;;5057938;23;20072;-61
2023/07/11 10:17:45;;;;;;;6.55;4.45;;;;;;;;;;5017701;28;20543;-61
2023/07/11 10:23:44;;;;;;;6.22;4.35;;;;;;;;;;5032785;28;20098;-60
2023/07/11 10:26:10;;;;;;;5.50;4.30;;;;;;;;;;5033076;28;20032;-61
2023/07/11 10:28:40;;;;;;;5.72;4.55;;;;;;;;;;5016412;28;20607;-61
2023/07/11 10:31:26;;;;;;;6.20;4.57;;;;;;;;;;4997898;28;20142;-61
2023/07/11 10:33:57;;;;;;;6.53;4.68;;;;;;;;;;5032961;28;20846;-61
2023/07/11 10:36:33;;;;;;;4.93;4.40;;;;;;;;;;5011055;28;20037;-61
2023/07/11 10:39:03;;;;;;;5.13;4.22;;;;;;;;;;5034007;28;20179;-61
2023/07/11 10:41:47;;;;;;;5.07;4.57;;;;;;;;;;5034945;28;20053;-60
2023/07/11 10:44:17;;;;;;;4.82;4.25;;;;;;;;;;5035149;28;20059;-60
2023/07/11 10:46:45;;;;;;;5.93;4.47;;;;;;;;;;5018157;28;20072;-60
2023/07/11 10:49:14;;;;;;;5.88;4.50;;;;;;;;;;5034229;28;20043;-61
2023/07/11 10:51:51;;;;;;;6.13;4.53;;;;;;;;;;5016590;28;20080;-60
2023/07/11 10:54:18;;;;;;;5.85;4.50;;;;;;;;;;5015586;28;20676;-61
2023/07/11 10:56:45;;;;;;;6.35;4.60;;;;;;;;;;5019330;28;20059;-60
2023/07/11 10:59:13;;;;;;;6.68;4.55;;;;;;;;;;5010734;28;20112;-61
2023/07/11 11:01:38;;;;;;;6.07;4.47;;;;;;;;;;5018551;28;20033;-61
2023/07/11 11:04:19;;;;;;;5.73;4.60;;;;;;;;;;5017755;28;20031;-60
2023/07/11 11:06:53;;;;;;;6.40;4.68;;;;;;;;;;5033960;28;20056;-61
2023/07/11 11:09:21;;;;;;;6.18;4.38;;;;;;;;;;5018429;28;20021;-60
2023/07/11 11:11:50;;;;;;;5.63;4.45;;;;;;;;;;5016202;28;20049;-59
2023/07/11 11:14:15;;;;;;;5.55;4.20;;;;;;;;;;5013322;28;20037;-60
2023/07/11 11:16:41;;;;;;;6.95;4.28;;;;;;;;;;5031029;28;20152;-61
2023/07/11 11:19:16;;;;;;;6.07;4.38;;;;;;;;;;5034132;28;20783;-60
2023/07/11 11:21:50;;;;;;;6.28;3.88;;;;;;;;;;5017869;28;20037;-60
2023/07/11 11:24:22;;;;;;;5.30;4.15;;;;;;;;;;5001040;28;20127;-60
2023/07/11 11:26:52;;;;;;;5.63;4.00;;;;;;;;;;5023387;28;20040;-60
2023/07/11 11:29:21;;;;;;;5.47;4.03;;;;;;;;;;5043111;28;20033;-60
2023/07/11 11:31:56;;;;;;;4.70;4.00;;;;;;;;;;5043135;28;20065;-60
2023/07/11 11:34:21;;;;;;;4.93;4.10;;;;;;;;;;5040852;28;20420;-60
2023/07/11 11:36:46;;;;;;;5.33;4.30;;;;;;;;;;5043736;28;20068;-61
2023/07/11 11:39:30;;;;;;;5.83;4.20;;;;;;;;;;5042163;28;20373;-59
2023/07/11 11:41:56;;;;;;;6.43;4.25;;;;;;;;;;5039433;28;20852;-61
2023/07/11 11:44:23;;;;;;;5.47;4.30;;;;;;;;;;5041095;28;20032;-60
2023/07/11 11:46:48;;;;;;;5.75;4.30;;;;;;;;;;5043037;28;20086;-61
2023/07/11 11:49:13;;;;;;;5.57;4.20;;;;;;;;;;5042332;28;20048;-60
2023/07/11 11:51:39;;;;;;;4.50;3.93;;;;;;;;;;5041037;28;20056;-60
2023/07/11 11:54:06;;;;;;;5.03;4.20;;;;;;;;;;5042725;28;20294;-60
2023/07/11 11:56:31;;;;;;;6.55;4.20;;;;;;;;;;5019572;28;20428;-61
2023/07/11 11:58:56;;;;;;;6.63;4.07;;;;;;;;;;5019466;28;20029;-61
2023/07/11 12:01:45;;;;;;;6.47;4.07;;;;;;;;;;5040719;28;20421;-60
2023/07/11 12:04:29;;;;;;;5.38;4.07;;;;;;;;;;5002830;28;20045;-60
2023/07/11 12:07:13;;;;;;;4.90;4.03;;;;;;;;;;5041814;28;20052;-60
2023/07/11 12:09:47;;;;;;;4.80;3.85;;;;;;;;;;5042166;28;20032;-60
2023/07/11 12:12:15;;;;;;;7.05;4.18;;;;;;;;;;5039481;28;20878;-61
2023/07/11 12:14:40;;;;;;;6.88;4.53;;;;;;;;;;5038401;28;20029;-60
2023/07/11 12:17:15;;;;;;;5.60;4.00;;;;;;;;;;5040916;28;20435;-60
2023/07/11 12:19:42;;;;;;;8.40;4.07;;;;;;;;;;5021607;28;20319;-60
2023/07/11 12:22:07;;;;;;;5.63;4.30;;;;;;;;;;5041604;28;20041;-61
2023/07/11 12:24:32;;;;;;;7.53;4.22;;;;;;;;;;5022820;28;20800;-60
2023/07/11 12:27:07;;;;;;;7.67;3.83;;;;;;;;;;5037042;28;20029;-60
2023/07/11 12:29:40;;;;;;;5.22;3.80;;;;;;;;;;5038479;28;20071;-60
2023/07/11 12:32:24;;;;;;;5.35;4.18;;;;;;;;;;5021205;28;20124;-60
2023/07/11 12:34:53;;;;;;;6.30;4.13;;;;;;;;;;5037980;28;20036;-61
2023/07/11 12:37:19;;;;;;;4.75;3.60;;;;;;;;;;5040775;28;20041;-60
2023/07/11 12:39:46;;;;;;;5.20;3.67;;;;;;;;;;5027075;28;20086;-60
2023/07/11 12:42:24;;;;;;;6.88;4.20;;;;;;;;;;5010353;28;20056;-60
2023/07/11 12:44:49;;;;;;;5.75;4.10;;;;;;;;;;5044471;28;20032;-60
2023/07/11 12:47:16;;;;;;;5.20;3.77;;;;;;;;;;5026631;28;20119;-60
2023/07/11 12:49:41;;;;;;;5.63;3.78;;;;;;;;;;5027053;28;20037;-60
2023/07/11 12:52:11;;;;;;;5.53;4.40;;;;;;;;;;5026775;28;20169;-60
2023/07/11 12:54:36;;;;;;;5.65;4.03;;;;;;;;;;5030940;28;20436;-61
2023/07/11 12:57:01;;;;;;;6.63;4.20;;;;;;;;;;5028859;28;20088;-60
2023/07/11 12:59:27;;;;;;;4.97;3.75;;;;;;;;;;4995010;28;20268;-61
2023/07/11 13:01:53;;;;;;;4.85;3.70;;;;;;;;;;4994896;28;20081;-60
2023/07/11 13:04:39;;;;;;;6.05;4.10;;;;;;;;;;5011239;28;20096;-61
2023/07/11 13:07:09;;;;;;;5.20;3.92;;;;;;;;;;5047450;28;20512;-61
2023/07/11 13:09:42;;;;;;;6.72;4.13;;;;;;;;;;5030808;28;20583;-60
2023/07/11 13:12:08;;;;;;;5.30;3.58;;;;;;;;;;5030872;28;20021;-60
2023/07/11 13:14:34;;;;;;;4.78;3.92;;;;;;;;;;5048790;28;20037;-60
2023/07/11 13:16:59;;;;;;;6.33;3.60;;;;;;;;;;5030416;28;20094;-60
2023/07/11 13:19:24;;;;;;;5.50;3.83;;;;;;;;;;5048832;28;20283;-60
2023/07/11 13:21:49;;;;;;;6.53;4.38;;;;;;;;;;5013889;28;20048;-61
2023/07/11 13:24:22;;;;;;;4.22;3.70;;;;;;;;;;5030952;28;20028;-60
2023/07/11 13:26:50;;;;;;;4.75;4.25;;;;;;;;;;5030119;28;20124;-60
2023/07/11 13:29:16;;;;;;;6.10;3.90;;;;;;;;;;5014535;28;20796;-60
2023/07/11 13:31:42;;;;;;;5.75;3.90;;;;;;;;;;5030518;28;20082;-60
2023/07/11 13:34:11;;;;;;;6.20;4.28;;;;;;;;;;5030617;28;20853;-60
2023/07/11 13:36:37;;;;;;;5.03;3.90;;;;;;;;;;5030334;28;20037;-61
2023/07/11 13:39:04;;;;;;;4.83;3.90;;;;;;;;;;5030492;28;20025;-61
2023/07/11 13:41:31;;;;;;;5.50;4.22;;;;;;;;;;5031265;28;20037;-60
2023/07/11 13:43:57;;;;;;;5.70;3.92;;;;;;;;;;5015515;28;20067;-60
2023/07/11 13:46:23;;;;;;;6.40;4.10;;;;;;;;;;5031927;28;20063;-60
2023/07/11 13:48:48;;;;;;;4.35;3.40;;;;;;;;;;5016010;28;20488;-60
2023/07/11 13:51:22;;;;;;;5.78;3.80;;;;;;;;;;5050360;28;20044;-60
2023/07/11 13:54:03;;;;;;;5.47;4.20;;;;;;;;;;5048863;28;20122;-60
2023/07/11 13:56:29;;;;;;;6.75;3.80;;;;;;;;;;5010329;28;20037;-60
2023/07/11 13:58:54;;;;;;;6.23;3.93;;;;;;;;;;5027902;28;20509;-61
2023/07/11 14:01:22;;;;;;;6.20;3.93;;;;;;;;;;5028422;28;20569;-60
2023/07/11 14:03:47;;;;;;;6.50;4.10;;;;;;;;;;5010973;28;20295;-60
2023/07/11 14:06:14;;;;;;;4.90;3.95;;;;;;;;;;5027416;28;20033;-60
2023/07/11 14:08:42;;;;;;;5.30;3.88;;;;;;;;;;5027992;28;20026;-60
2023/07/11 14:11:10;;;;;;;7.15;4.22;;;;;;;;;;4993721;28;20038;-60
2023/07/11 14:13:36;;;;;;;5.28;3.90;;;;;;;;;;5010473;28;20037;-60
2023/07/11 14:16:01;;;;;;;4.78;3.80;;;;;;;;;;4998541;28;20509;-60
2023/07/11 14:18:27;;;;;;;5.67;4.00;;;;;;;;;;5013431;28;20045;-60
2023/07/11 14:20:52;;;;;;;5.33;3.40;;;;;;;;;;5029839;28;20043;-60
2023/07/11 14:23:21;;;;;;;5.37;3.90;;;;;;;;;;5048232;28;20615;-60
2023/07/11 14:25:46;;;;;;;4.65;3.45;;;;;;;;;;5026620;28;20825;-59
2023/07/11 14:28:12;;;;;;;5.38;3.60;;;;;;;;;;5010337;28;20029;-60
2023/07/11 14:30:38;;;;;;;5.13;3.65;;;;;;;;;;5009810;28;20048;-60
2023/07/11 14:33:04;;;;;;;4.73;3.57;;;;;;;;;;5010146;28;20092;-61
2023/07/11 14:35:29;;;;;;;5.63;3.55;;;;;;;;;;5027855;28;20280;-59
2023/07/11 14:37:54;;;;;;;5.43;3.57;;;;;;;;;;5028886;28;20106;-59
2023/07/11 14:40:20;;;;;;;5.90;3.80;;;;;;;;;;5029907;28;20131;-60
2023/07/11 14:42:46;;;;;;;5.93;3.92;;;;;;;;;;5029421;28;20375;-59
2023/07/11 14:45:16;;;;;;;4.78;3.28;;;;;;;;;;5047194;28;20492;-59
2023/07/11 14:47:42;;;;;;;4.93;3.50;;;;;;;;;;5012392;28;20522;-59
2023/07/11 14:50:08;;;;;;;5.30;3.40;;;;;;;;;;4992974;28;20121;-59
2023/07/11 14:52:33;;;;;;;3.85;3.40;;;;;;;;;;5009550;28;20517;-60
2023/07/11 14:54:59;;;;;;;5.07;3.57;;;;;;;;;;5009182;28;20044;-59
2023/07/11 14:57:24;;;;;;;5.32;3.72;;;;;;;;;;5040118;28;20374;-58
2023/07/11 14:59:50;;;;;;;5.75;3.50;;;;;;;;;;5047050;28;20489;-60
2023/07/11 15:02:26;;;;;;;6.40;3.97;;;;;;;;;;5047400;28;20045;-59
2023/07/11 15:04:51;;;;;;;5.80;3.58;;;;;;;;;;5029057;28;20041;-59
2023/07/11 15:07:16;;;;;;;6.77;3.90;;;;;;;;;;5035186;28;20033;-60
2023/07/11 15:09:41;;;;;;;4.00;3.53;;;;;;;;;;5026953;28;20026;-59
2023/07/11 15:12:09;;;;;;;5.22;3.70;;;;;;;;;;5026981;28;20284;-59
2023/07/11 15:14:34;;;;;;;5.82;3.67;;;;;;;;;;5009164;28;20036;-59
2023/07/11 15:17:00;;;;;;;4.10;3.30;;;;;;;;;;4999483;28;20453;-59
2023/07/11 15:19:25;;;;;;;5.95;4.03;;;;;;;;;;5026169;28;20275;-56
2023/07/11 15:22:06;;;;;;;4.82;3.28;;;;;;;;;;5045978;28;20053;-58
2023/07/11 15:24:37;;;;;;;5.68;3.88;;;;;;;;;;5027903;28;20052;-57
2023/07/11 15:27:02;;;;;;;5.25;3.67;;;;;;;;;;5044091;28;20037;-57
2023/07/11 15:29:27;;;;;;;4.30;3.30;;;;;;;;;;5045572;28;20493;-57
2023/07/11 15:31:52;;;;;;;5.37;3.80;;;;;;;;;;5010578;28;20543;-57
2023/07/11 15:34:25;;;;;;;5.90;3.70;;;;;;;;;;5045338;28;20279;-57
2023/07/11 15:36:50;;;;;;;4.30;3.53;;;;;;;;;;5023694;28;20291;-57
2023/07/11 15:39:16;;;;;;;5.07;3.80;;;;;;;;;;5025190;28;20033;-56
2023/07/11 15:41:41;;;;;;;6.07;3.60;;;;;;;;;;5006104;28;20045;-58
2023/07/11 15:44:33;;;;;;;6.13;3.90;;;;;;;;;;5007956;28;20022;-57
2023/07/11 15:46:59;;;;;;;6.38;3.67;;;;;;;;;;5019310;28;20116;-57
2023/07/11 15:49:24;;;;;;;5.57;3.80;;;;;;;;;;5025801;28;20031;-58
2023/07/11 15:51:53;;;;;;;4.50;3.70;;;;;;;;;;5007233;28;20038;-58
2023/07/11 15:54:19;;;;;;;5.22;3.63;;;;;;;;;;4991372;28;20068;-58
2023/07/11 15:56:44;;;;;;;5.13;3.63;;;;;;;;;;5028160;28;20409;-58
2023/07/11 15:59:13;;;;;;;6.13;3.72;;;;;;;;;;5026448;28;20310;-59
2023/07/11 16:01:39;;;;;;;7.20;3.90;;;;;;;;;;5045194;28;20048;-58